map of FJR home
FJR - Airport
Location
City:  Al-Fujairah, Fujairah, United Arab Emirates
Name:Fujairah International Airport
ICAO:OMFJ
IATA:FJR

Details
Type:Airport (Aerodrome, Airfield)
Use:Public/Civil, International (customs port of entry)
Latitude:2506'44"N (25.112225)
Longitude:5619'26"E (56.323964)
Datum:WGS 1984
Elevation:152 ft (46 m)
Variation:1.98E (WMM2015 magnetic declination)
0.05 annual change
Runways:1
Longest:12303 × 148 ft (3750 × 45 m), paved

Time
Time Zone:UTC+4
Local Time:

Weather
METAR:OMFJ 162200Z 29001KT 6000 NSC 20/17 Q1014 A2997
TAF:OMFJ 161700Z 1618/1724 VRB03KT 7000 NSC
BECMG 1621/1623 29006KT
BECMG 1706/1708 09010KT
BECMG 1714/1716 15005KT

Related Locations
Nearby:
Farthest:GMR: 11725 mi / 18870 km
Mangareva [Totegegie], Gambier Islands, PF

Find:

   beyond  
but within

Other Information
Maps:
NOTAMs:
Links:
Sources:

  
  • flag of United Arab Emirates
  • flag of Fujairah
  

Sectional Chart

Flight Planning
at skyvector.com

Satellite Image

Google Maps Satellite view

 

Copyright © 2004-2019 Karl L. Swartz. All rights reserved.
The Great Circle Mapper name and logo are trademarks of the Great Circle Mapper.
All other trademarks mentioned herein belong to their respective owners.
Please see credits for attibutions and further copyright information.

  Follow gcmap on Facebook Follow gcmap on Twitter Follow gcmap on Google+ GCmap on LinkedIn

hCard Microformat

Geo Microformat